createdAt,value
2018-07-27T00:00:19.083Z,61.4
2018-07-27T00:01:08.876Z,61.4
2018-07-27T00:01:58.722Z,61.4
2018-07-27T00:02:48.685Z,61.4
2018-07-27T00:03:38.820Z,61.4
2018-07-27T00:04:28.631Z,61.4
2018-07-27T00:05:18.418Z,61.4
2018-07-27T00:06:08.759Z,61.4
2018-07-27T00:06:59.118Z,61.4
2018-07-27T00:07:48.593Z,61.4
2018-07-27T00:08:39.140Z,61.3
2018-07-27T00:09:28.911Z,61.4
2018-07-27T00:10:19.955Z,61.3
2018-07-27T00:11:09.334Z,61.3
2018-07-27T00:11:59.972Z,61.3
2018-07-27T00:12:50.021Z,61.3
2018-07-27T00:13:39.543Z,61.3
2018-07-27T00:14:29.581Z,61.3
2018-07-27T00:15:19.696Z,61.3
2018-07-27T00:16:09.467Z,61.3
2018-07-27T00:17:00.340Z,61.3
2018-07-27T00:17:49.887Z,61.3
2018-07-27T00:18:40.188Z,61.3
2018-07-27T00:19:29.687Z,61.3
2018-07-27T00:20:20.088Z,61.3
2018-07-27T00:21:10.136Z,61.2
2018-07-27T00:21:59.900Z,61.2
2018-07-27T00:22:50.244Z,61.2
2018-07-27T00:23:40.602Z,61.2
2018-07-27T00:24:30.116Z,61.2
2018-07-27T00:25:20.518Z,61.1
2018-07-27T00:26:10.351Z,61.2
2018-07-27T00:27:00.856Z,61.1
2018-07-27T00:27:50.894Z,61.1
2018-07-27T00:28:41.258Z,61.1
2018-07-27T00:29:31.022Z,61.1
2018-07-27T00:30:21.385Z,61.1
2018-07-27T00:31:10.870Z,61.1
2018-07-27T00:32:01.529Z,61.1
2018-07-27T00:32:51.575Z,61.1
2018-07-27T00:33:41.342Z,61.1
2018-07-27T00:34:31.445Z,61.1
2018-07-27T00:35:21.502Z,61.1
2018-07-27T00:36:11.827Z,61.1
2018-07-27T00:37:01.882Z,61.1
2018-07-27T00:37:51.943Z,61
2018-07-27T00:38:42.005Z,61
2018-07-27T00:39:31.799Z,61
2018-07-27T00:40:21.038Z,61
2018-07-27T00:41:11.642Z,61
2018-07-27T00:42:01.731Z,61
2018-07-27T00:42:51.804Z,61
2018-07-27T00:43:41.280Z,60.9
2018-07-27T00:44:32.182Z,60.9
2018-07-27T00:45:21.991Z,60.9
2018-07-27T00:46:12.325Z,60.9
2018-07-27T00:47:02.342Z,60.9
2018-07-27T00:47:52.443Z,60.9
2018-07-27T00:48:42.835Z,60.9
2018-07-27T00:49:32.828Z,60.9
2018-07-27T00:50:22.377Z,60.9
2018-07-27T00:51:12.409Z,60.9
2018-07-27T00:52:03.015Z,60.9
2018-07-27T00:52:52.533Z,60.9
2018-07-27T00:53:43.175Z,60.9
2018-07-27T00:54:32.659Z,60.9
2018-07-27T00:55:22.465Z,60.8
2018-07-27T00:56:12.527Z,60.8
2018-07-27T00:57:02.911Z,60.8
2018-07-27T00:57:53.503Z,60.8
2018-07-27T00:58:43.298Z,60.8
2018-07-27T00:59:33.070Z,60.8
2018-07-27T01:00:23.395Z,60.8
2018-07-27T01:01:13.499Z,60.8
2018-07-27T01:02:02.977Z,60.8
2018-07-27T01:02:53.990Z,60.8
2018-07-27T01:03:43.369Z,60.8
2018-07-27T01:04:33.751Z,60.8
2018-07-27T01:05:23.771Z,60.8
2018-07-27T01:06:13.847Z,60.8
2018-07-27T01:07:04.188Z,60.7
2018-07-27T01:07:53.741Z,60.7
2018-07-27T01:08:43.812Z,60.7
2018-07-27T01:09:34.375Z,60.7
2018-07-27T01:10:24.153Z,60.7
2018-07-27T01:11:14.535Z,60.7
2018-07-27T01:12:03.977Z,60.6
2018-07-27T01:12:54.659Z,60.6
2018-07-27T01:13:44.713Z,60.6
2018-07-27T01:14:34.220Z,60.6
2018-07-27T01:15:24.562Z,60.6
2018-07-27T01:16:14.345Z,60.6
2018-07-27T01:17:04.414Z,60.6
2018-07-27T01:17:54.439Z,60.6
2018-07-27T01:18:45.061Z,60.6
2018-07-27T01:19:34.851Z,60.6
2018-07-27T01:20:25.240Z,60.6
2018-07-27T01:21:15.273Z,60.6
2018-07-27T01:22:04.795Z,60.6
2018-07-27T01:22:55.158Z,60.6
2018-07-27T01:23:45.442Z,60.5
2018-07-27T01:24:35.249Z,60.5
2018-07-27T01:25:25.395Z,60.5
2018-07-27T01:26:15.658Z,60.5
2018-07-27T01:27:05.186Z,60.5
2018-07-27T01:27:55.815Z,60.5
2018-07-27T01:28:45.550Z,60.4
2018-07-27T01:29:35.916Z,60.5
2018-07-27T01:30:25.981Z,60.4
2018-07-27T01:31:16.016Z,60.4
2018-07-27T01:32:05.548Z,60.4
2018-07-27T01:32:55.904Z,60.4
2018-07-27T01:33:46.240Z,60.4
2018-07-27T01:34:36.030Z,60.4
2018-07-27T01:35:26.108Z,60.4
2018-07-27T01:36:15.896Z,60.4
2018-07-27T01:37:05.659Z,60.4
2018-07-27T01:37:55.984Z,60.4
2018-07-27T01:38:46.086Z,60.4
2018-07-27T01:39:36.675Z,60.4
2018-07-27T01:40:26.219Z,60.4
2018-07-27T01:41:16.794Z,60.3
2018-07-27T01:42:06.297Z,60.3
2018-07-27T01:42:56.952Z,60.3
2018-07-27T01:43:46.987Z,60.3
2018-07-27T01:44:36.523Z,60.3
2018-07-27T01:45:26.571Z,60.3
2018-07-27T01:46:16.623Z,60.3
2018-07-27T01:47:07.236Z,60.3
2018-07-27T01:47:57.344Z,60.3
2018-07-27T01:48:47.084Z,60.3
2018-07-27T01:49:37.165Z,60.3
2018-07-27T01:50:27.495Z,60.3
2018-07-27T01:51:17.015Z,60.3
2018-07-27T01:52:06.807Z,60.3
2018-07-27T01:52:57.391Z,60.3
2018-07-27T01:53:47.749Z,60.2
2018-07-27T01:54:37.329Z,60.2
2018-07-27T01:55:27.889Z,60.2
2018-07-27T01:56:17.966Z,60.2
2018-07-27T01:57:08.007Z,60.1
2018-07-27T01:57:58.077Z,60.1
2018-07-27T01:58:47.882Z,60.1
2018-07-27T01:59:37.894Z,60.1
2018-07-27T02:00:28.265Z,60.1
2018-07-27T02:01:18.341Z,60.1
2018-07-27T02:02:08.176Z,60.1
2018-07-27T02:02:58.461Z,60.1
2018-07-27T02:03:47.682Z,60.1
2018-07-27T02:04:37.764Z,60.1
2018-07-27T02:05:28.369Z,60.1
2018-07-27T02:06:18.751Z,60.1
2018-07-27T02:07:08.287Z,60.1
2018-07-27T02:07:58.034Z,60.1
2018-07-27T02:08:48.922Z,60
2018-07-27T02:09:38.990Z,60.1
2018-07-27T02:10:29.042Z,60
2018-07-27T02:11:18.552Z,60
2018-07-27T02:12:08.924Z,60
2018-07-27T02:12:59.232Z,60
2018-07-27T02:13:49.050Z,60
2018-07-27T02:14:39.148Z,59.9
2018-07-27T02:15:29.432Z,59.9
2018-07-27T02:16:19.276Z,59.9
2018-07-27T02:17:09.024Z,59.9
2018-07-27T02:17:59.661Z,59.9
2018-07-27T02:18:49.171Z,59.9
2018-07-27T02:19:39.493Z,59.9
2018-07-27T02:20:29.249Z,59.9
2018-07-27T02:21:19.656Z,59.9
2018-07-27T02:22:09.672Z,59.9
2018-07-27T02:22:59.726Z,59.9
2018-07-27T02:23:49.791Z,59.9
2018-07-27T02:24:40.139Z,59.9
2018-07-27T02:25:29.661Z,59.9
2018-07-27T02:26:19.445Z,59.9
2018-07-27T02:27:10.041Z,59.8
2018-07-27T02:27:59.840Z,59.8
2018-07-27T02:28:50.424Z,59.8
2018-07-27T02:29:40.535Z,59.8
2018-07-27T02:30:29.750Z,59.8
2018-07-27T02:31:20.385Z,59.8
2018-07-27T02:32:10.691Z,59.8
2018-07-27T02:33:00.809Z,59.8
2018-07-27T02:33:50.517Z,59.8
2018-07-27T02:34:40.933Z,59.8
2018-07-27T02:35:30.690Z,59.8
2018-07-27T02:36:21.059Z,59.8
2018-07-27T02:37:11.088Z,59.7
2018-07-27T02:38:00.949Z,59.8
2018-07-27T02:38:51.228Z,59.7
2018-07-27T02:39:41.022Z,59.7
2018-07-27T02:40:31.377Z,59.7
2018-07-27T02:41:21.438Z,59.7
2018-07-27T02:42:10.916Z,59.7
2018-07-27T02:43:00.996Z,59.7
2018-07-27T02:43:51.083Z,59.6
2018-07-27T02:44:40.857Z,59.6
2018-07-27T02:45:31.004Z,59.6
2018-07-27T02:46:21.845Z,59.6
2018-07-27T02:47:11.599Z,59.6
2018-07-27T02:48:01.426Z,59.6
2018-07-27T02:48:51.745Z,59.6
2018-07-27T02:49:42.105Z,59.6
2018-07-27T02:50:31.860Z,59.6
2018-07-27T02:51:21.532Z,59.6
2018-07-27T02:52:12.281Z,59.6
2018-07-27T02:53:02.154Z,59.6
2018-07-27T02:53:52.113Z,59.6
2018-07-27T02:54:42.195Z,59.5
2018-07-27T02:55:32.237Z,59.5
2018-07-27T02:56:22.028Z,59.5
2018-07-27T02:57:12.336Z,59.5
2018-07-27T02:58:02.437Z,59.5
2018-07-27T02:58:52.189Z,59.5
2018-07-27T02:59:42.863Z,59.5
2018-07-27T03:00:32.602Z,59.4
2018-07-27T03:01:22.684Z,59.4
2018-07-27T03:02:12.478Z,59.4
2018-07-27T03:03:02.806Z,59.4
2018-07-27T03:03:53.165Z,59.4
2018-07-27T03:04:42.941Z,59.4
2018-07-27T03:05:33.033Z,59.4
2018-07-27T03:06:23.129Z,59.4
2018-07-27T03:07:13.420Z,59.4
2018-07-27T03:08:03.191Z,59.4
2018-07-27T03:08:52.711Z,59.4
2018-07-27T03:09:43.357Z,59.4
2018-07-27T03:10:33.405Z,59.4
2018-07-27T03:11:23.736Z,59.3
2018-07-27T03:12:13.529Z,59.4
2018-07-27T03:13:03.861Z,59.3
2018-07-27T03:13:53.381Z,59.3
2018-07-27T03:14:43.193Z,59.3
2018-07-27T03:15:33.200Z,59.3
2018-07-27T03:16:23.598Z,59.3
2018-07-27T03:17:13.582Z,59.3
2018-07-27T03:18:04.254Z,59.3
2018-07-27T03:18:54.265Z,59.3
2018-07-27T03:19:43.802Z,59.3
2018-07-27T03:20:34.418Z,59.3
2018-07-27T03:21:24.469Z,59.3
2018-07-27T03:22:14.009Z,59.3
2018-07-27T03:23:04.595Z,59.2
2018-07-27T03:23:54.435Z,59.2
2018-07-27T03:24:44.182Z,59.2
2018-07-27T03:25:34.635Z,59.2
2018-07-27T03:26:24.600Z,59.2
2018-07-27T03:27:14.641Z,59.2
2018-07-27T03:28:05.003Z,59.2
2018-07-27T03:28:54.472Z,59.2
2018-07-27T03:29:44.819Z,59.1
2018-07-27T03:30:35.338Z,59.1
2018-07-27T03:31:25.278Z,59.1
2018-07-27T03:32:14.603Z,59.1
2018-07-27T03:33:05.141Z,59.1
2018-07-27T03:33:55.475Z,59.1
2018-07-27T03:34:45.494Z,59.1
2018-07-27T03:35:35.030Z,59.1
2018-07-27T03:36:25.362Z,59.1
2018-07-27T03:37:15.127Z,59.1
2018-07-27T03:38:04.712Z,59.1
2018-07-27T03:38:55.517Z,59.1
2018-07-27T03:39:45.342Z,59.1
2018-07-27T03:40:35.697Z,59
2018-07-27T03:41:25.826Z,59
2018-07-27T03:42:15.702Z,59
2018-07-27T03:43:05.857Z,59
2018-07-27T03:43:55.951Z,59
2018-07-27T03:44:45.722Z,58.9
2018-07-27T03:45:36.437Z,58.9
2018-07-27T03:46:25.559Z,58.9
2018-07-27T03:47:15.607Z,58.9
2018-07-27T03:48:06.579Z,58.9
2018-07-27T03:48:56.569Z,58.9
2018-07-27T03:49:45.807Z,58.9
2018-07-27T03:50:35.892Z,58.9
2018-07-27T03:51:26.253Z,58.9
2018-07-27T03:52:16.861Z,58.9
2018-07-27T03:53:06.883Z,58.9
2018-07-27T03:53:56.412Z,58.9
2018-07-27T03:54:46.453Z,58.9
2018-07-27T03:55:37.120Z,58.9
2018-07-27T03:56:27.147Z,58.9
2018-07-27T03:57:17.238Z,58.8
2018-07-27T03:58:06.739Z,58.8
2018-07-27T03:58:56.797Z,58.8
2018-07-27T03:59:47.122Z,58.8
2018-07-27T04:00:36.651Z,58.8
2018-07-27T04:01:27.582Z,58.8
2018-07-27T04:02:17.723Z,58.8
2018-07-27T04:03:06.850Z,58.8
2018-07-27T04:03:57.779Z,58.8
2018-07-27T04:04:46.921Z,58.8
2018-07-27T04:05:37.869Z,58.8
2018-07-27T04:06:27.916Z,58.8
2018-07-27T04:07:18.100Z,58.8
2018-07-27T04:08:08.077Z,58.7
2018-07-27T04:08:58.137Z,58.7
2018-07-27T04:09:48.176Z,58.7
2018-07-27T04:10:37.430Z,58.7
2018-07-27T04:11:28.035Z,58.6
2018-07-27T04:12:18.394Z,58.6
2018-07-27T04:13:07.887Z,58.6
2018-07-27T04:13:58.295Z,58.6
2018-07-27T04:14:48.039Z,58.6
2018-07-27T04:15:38.617Z,58.6
2018-07-27T04:16:28.700Z,58.6
2018-07-27T04:20:38.001Z,58.5
2018-07-27T04:21:29.064Z,58.5
2018-07-27T04:22:18.073Z,58.5
2018-07-27T04:23:08.645Z,58.5
2018-07-27T04:23:58.724Z,58.4
2018-07-27T04:24:48.806Z,58.4
2018-07-27T04:25:38.850Z,58.4
2018-07-27T04:26:29.916Z,58.4
2018-07-27T04:27:18.779Z,58.4
2018-07-27T04:28:09.565Z,58.4
2018-07-27T04:28:59.674Z,58.4
2018-07-27T04:29:49.738Z,58.4
2018-07-27T04:30:39.209Z,58.4
2018-07-27T04:31:29.836Z,58.4
2018-07-27T04:32:19.128Z,58.4
2018-07-27T04:33:09.413Z,58.4
2018-07-27T04:34:00.043Z,58.4
2018-07-27T04:34:49.832Z,58.3
2018-07-27T04:35:40.212Z,58.3
2018-07-27T04:36:30.210Z,58.3
2018-07-27T04:37:20.298Z,58.3
2018-07-27T04:38:10.095Z,58.3
2018-07-27T04:39:00.440Z,58.3
2018-07-27T04:39:50.527Z,58.3
2018-07-27T04:40:40.030Z,58.3
2018-07-27T04:41:30.574Z,58.3
2018-07-27T04:42:20.650Z,58.3
2018-07-27T04:43:10.187Z,58.3
2018-07-27T04:44:00.766Z,58.3
2018-07-27T04:44:50.844Z,58.3
2018-07-27T04:45:40.624Z,58.2
2018-07-27T04:46:30.484Z,58.2
2018-07-27T04:47:20.506Z,58.2
2018-07-27T04:48:11.117Z,58.2
2018-07-27T04:49:00.615Z,58.2
2018-07-27T04:49:50.682Z,58.2
2018-07-27T04:50:41.031Z,58.2
2018-07-27T04:51:31.151Z,58.1
2018-07-27T04:52:21.177Z,58.1
2018-07-27T04:53:11.517Z,58.1
2018-07-27T04:54:01.582Z,58.1
2018-07-27T04:54:51.614Z,58.1
2018-07-27T04:55:41.137Z,58.1
2018-07-27T04:56:31.251Z,58.1
2018-07-27T04:57:21.548Z,58.1
2018-07-27T04:58:11.892Z,58.1
2018-07-27T04:59:01.400Z,58.1
2018-07-27T04:59:52.005Z,58
2018-07-27T05:00:41.608Z,58
2018-07-27T05:01:32.131Z,58
2018-07-27T05:02:22.191Z,58
2018-07-27T05:03:11.511Z,58
2018-07-27T05:04:02.295Z,58
2018-07-27T05:04:52.563Z,58
2018-07-27T05:05:42.165Z,57.9
2018-07-27T05:06:32.260Z,57.9
2018-07-27T05:07:22.278Z,57.9
2018-07-27T05:08:12.073Z,57.9
2018-07-27T05:09:02.694Z,57.9
2018-07-27T05:09:52.755Z,57.9
2018-07-27T05:10:42.828Z,57.9
2018-07-27T05:11:32.940Z,57.9
2018-07-27T05:12:22.500Z,57.9
2018-07-27T05:13:12.561Z,57.9
2018-07-27T05:14:03.073Z,57.9
2018-07-27T05:14:52.598Z,57.9
2018-07-27T05:15:43.231Z,57.8
2018-07-27T05:16:33.001Z,57.8
2018-07-27T05:17:22.585Z,57.8
2018-07-27T05:18:13.252Z,57.8
2018-07-27T05:19:02.994Z,57.8
2018-07-27T05:19:53.303Z,57.8
2018-07-27T05:20:43.351Z,57.8
2018-07-27T05:25:43.740Z,57.7
2018-07-27T05:26:33.798Z,57.7
2018-07-27T05:27:23.561Z,57.7
2018-07-27T05:28:13.667Z,57.7
2018-07-27T05:29:04.259Z,57.7
2018-07-27T05:29:54.302Z,57.7
2018-07-27T05:30:43.819Z,57.7
2018-07-27T05:31:34.161Z,57.7
2018-07-27T05:32:23.735Z,57.6
2018-07-27T05:33:14.273Z,57.6
2018-07-27T05:34:04.363Z,57.6
2018-07-27T05:34:53.899Z,57.6
2018-07-27T05:35:44.489Z,57.6
2018-07-27T05:36:34.535Z,57.6
2018-07-27T05:37:24.877Z,57.6
2018-07-27T05:38:14.664Z,57.6
2018-07-27T05:39:04.759Z,57.6
2018-07-27T05:39:54.791Z,57.6
2018-07-27T05:40:44.584Z,57.6
2018-07-27T05:41:34.379Z,57.5
2018-07-27T05:42:24.685Z,57.5
2018-07-27T05:43:15.324Z,57.5
2018-07-27T05:44:05.114Z,57.5
2018-07-27T05:44:54.919Z,57.5
2018-07-27T05:45:45.232Z,57.5
2018-07-27T05:46:35.297Z,57.5
2018-07-27T05:47:25.112Z,57.4
2018-07-27T05:48:14.852Z,57.4
2018-07-27T05:49:05.782Z,57.4
2018-07-27T05:49:55.819Z,57.4
2018-07-27T05:50:45.925Z,57.4
2018-07-27T05:51:35.667Z,57.4
2018-07-27T05:52:25.732Z,57.4
2018-07-27T05:53:15.786Z,57.4
2018-07-27T05:54:05.891Z,57.4
2018-07-27T05:54:55.166Z,57.4
2018-07-27T05:55:46.277Z,57.4
2018-07-27T05:56:36.318Z,57.4
2018-07-27T05:57:26.398Z,57.3
2018-07-27T05:58:16.213Z,57.3
2018-07-27T05:59:06.552Z,57.3
2018-07-27T05:59:56.586Z,57.3
2018-07-27T06:00:46.666Z,57.3
2018-07-27T06:01:36.719Z,57.3
2018-07-27T06:02:26.556Z,57.3
2018-07-27T06:03:16.604Z,57.3
2018-07-27T06:04:06.953Z,57.3
2018-07-27T06:04:57.583Z,57.3
2018-07-27T06:05:47.090Z,57.3
2018-07-27T06:06:36.828Z,57.3
2018-07-27T06:07:26.893Z,57.2
2018-07-27T06:08:17.261Z,57.2
2018-07-27T06:09:06.771Z,57.2
2018-07-27T06:09:56.815Z,57.2
2018-07-27T06:10:47.163Z,57.2
2018-07-27T06:11:37.231Z,57.2
2018-07-27T06:12:26.428Z,57.2
2018-07-27T06:13:17.644Z,57.2
2018-07-27T06:14:07.678Z,57.1
2018-07-27T06:14:57.182Z,57.1
2018-07-27T06:15:47.779Z,57.1
2018-07-27T06:16:37.284Z,57.1
2018-07-27T06:17:27.684Z,57.1
2018-07-27T06:18:18.381Z,57.1
2018-07-27T06:19:08.064Z,57.1
2018-07-27T06:19:58.099Z,57.1
2018-07-27T06:20:47.909Z,57.1
2018-07-27T06:21:38.282Z,57.1
2018-07-27T06:22:28.048Z,57.1
2018-07-27T06:23:18.407Z,57.1
2018-07-27T06:24:09.626Z,57.1
2018-07-27T06:24:57.966Z,57
2018-07-27T06:25:48.413Z,57
2018-07-27T06:26:38.397Z,57
2018-07-27T06:27:28.413Z,57
2018-07-27T06:28:19.480Z,57
2018-07-27T06:29:09.042Z,57
2018-07-27T06:29:59.140Z,56.9
2018-07-27T06:30:48.925Z,56.9
2018-07-27T06:31:38.994Z,56.9
2018-07-27T06:32:28.623Z,56.9
2018-07-27T06:33:18.899Z,56.9
2018-07-27T06:34:08.973Z,56.9
2018-07-27T06:34:58.742Z,56.9
2018-07-27T06:35:48.765Z,56.8
2018-07-27T06:36:38.848Z,56.8
2018-07-27T06:37:29.468Z,56.8
2018-07-27T06:38:19.537Z,56.8
2018-07-27T06:39:10.239Z,56.8
2018-07-27T06:39:59.385Z,56.8
2018-07-27T06:40:49.448Z,56.8
2018-07-27T06:41:39.233Z,56.8
2018-07-27T06:42:29.588Z,56.7
2018-07-27T06:43:19.904Z,56.7
2018-07-27T06:44:09.718Z,56.7
2018-07-27T06:44:59.510Z,56.7
2018-07-27T06:45:49.358Z,56.7
2018-07-27T06:46:40.016Z,56.7
2018-07-27T06:47:29.397Z,56.6
2018-07-27T06:48:20.020Z,56.6
2018-07-27T06:49:09.334Z,56.6
2018-07-27T06:49:59.575Z,56.6
2018-07-27T06:50:50.022Z,56.6
2018-07-27T06:51:40.604Z,56.6
2018-07-27T06:52:30.848Z,56.6
2018-07-27T06:53:19.918Z,56.6
2018-07-27T06:54:10.508Z,56.6
2018-07-27T06:55:00.075Z,56.6
2018-07-27T06:55:50.648Z,56.6
2018-07-27T06:56:40.194Z,56.6
2018-07-27T06:57:31.017Z,56.6
2018-07-27T06:58:20.799Z,56.5
2018-07-27T06:59:10.864Z,56.5
2018-07-27T07:00:00.634Z,56.5
2018-07-27T07:00:50.439Z,56.5
2018-07-27T07:01:41.359Z,56.5
2018-07-27T07:02:30.859Z,56.5
2018-07-27T07:03:20.976Z,56.5
2018-07-27T07:04:11.235Z,56.4
2018-07-27T07:05:00.463Z,56.4
2018-07-27T07:05:50.770Z,56.4
2018-07-27T07:06:41.697Z,56.4
2018-07-27T07:07:31.765Z,56.4
2018-07-27T07:08:21.540Z,56.4
2018-07-27T07:09:11.762Z,56.4
2018-07-27T07:10:01.116Z,56.4
2018-07-27T07:10:52.047Z,56.4
2018-07-27T07:11:41.522Z,56.4
2018-07-27T07:12:31.610Z,56.4
2018-07-27T07:13:21.808Z,56.4
2018-07-27T07:14:12.011Z,56.3
2018-07-27T07:15:02.058Z,56.3
2018-07-27T07:15:52.115Z,56.3
2018-07-27T07:16:41.912Z,56.3
2018-07-27T07:17:32.269Z,56.3
2018-07-27T07:18:22.717Z,56.3
2018-07-27T07:19:12.669Z,56.3
2018-07-27T07:20:02.739Z,56.3
2018-07-27T07:20:52.237Z,56.3
2018-07-27T07:21:42.600Z,56.3
2018-07-27T07:22:32.373Z,56.3
2018-07-27T07:23:22.979Z,56.3
2018-07-27T07:24:13.036Z,56.3
2018-07-27T07:25:03.111Z,56.3
2018-07-27T07:25:55.974Z,56.2
2018-07-27T07:26:43.242Z,56.2
2018-07-27T07:27:32.726Z,56.2
2018-07-27T07:28:23.337Z,56.2
2018-07-27T07:29:13.402Z,56.2
2018-07-27T07:30:03.512Z,56.2
2018-07-27T07:30:53.575Z,56.1
2018-07-27T07:31:43.351Z,56.1
2018-07-27T07:32:33.149Z,56.1
2018-07-27T07:33:23.767Z,56.1
2018-07-27T07:34:13.848Z,56.1
2018-07-27T07:35:03.890Z,56.1
2018-07-27T07:35:53.637Z,56.1
2018-07-27T07:36:44.015Z,56.1
2018-07-27T07:37:34.055Z,56.1
2018-07-27T07:38:23.831Z,56.1
2018-07-27T07:39:14.838Z,56.1
2018-07-27T07:40:04.270Z,56.1
2018-07-27T07:40:54.319Z,56.1
2018-07-27T07:41:44.118Z,56.1
2018-07-27T07:42:34.484Z,56
2018-07-27T07:43:23.948Z,56
2018-07-27T07:44:14.339Z,56
2018-07-27T07:45:04.702Z,56
2018-07-27T07:45:54.774Z,56
2018-07-27T07:46:44.860Z,56
2018-07-27T07:47:35.024Z,55.9
2018-07-27T07:48:24.997Z,55.9
2018-07-27T07:49:15.110Z,55.9
2018-07-27T07:50:05.089Z,55.9
2018-07-27T07:50:54.839Z,55.9
2018-07-27T07:51:44.445Z,55.9
2018-07-27T07:52:34.198Z,55.9
2018-07-27T07:53:25.368Z,55.9
2018-07-27T07:54:15.112Z,55.9
2018-07-27T07:55:05.509Z,55.9
2018-07-27T07:55:55.533Z,55.8
2018-07-27T07:56:45.613Z,55.8
2018-07-27T07:57:35.616Z,55.8
2018-07-27T07:58:24.861Z,55.8
2018-07-27T07:59:15.796Z,55.8
2018-07-27T08:00:05.828Z,55.8
2018-07-27T08:00:55.869Z,55.8
2018-07-27T08:01:45.707Z,55.8
2018-07-27T08:02:36.123Z,55.8
2018-07-27T08:03:25.844Z,55.8
2018-07-27T08:04:15.687Z,55.8
2018-07-27T08:05:05.668Z,55.8
2018-07-27T08:05:55.983Z,55.8
2018-07-27T08:06:45.798Z,55.8
2018-07-27T08:07:35.553Z,55.8
2018-07-27T08:08:26.459Z,55.7
2018-07-27T08:09:16.489Z,55.7
2018-07-27T08:10:06.047Z,55.7
2018-07-27T08:10:55.846Z,55.7
2018-07-27T08:11:46.434Z,55.7
2018-07-27T08:12:36.650Z,55.7
2018-07-27T08:13:26.343Z,55.7
2018-07-27T08:14:16.394Z,55.6
2018-07-27T08:15:06.742Z,55.6
2018-07-27T08:15:56.576Z,55.6
2018-07-27T08:16:46.262Z,55.6
2018-07-27T08:17:36.898Z,55.6
2018-07-27T08:18:27.036Z,55.6
2018-07-27T08:19:17.337Z,55.6
2018-07-27T08:20:07.405Z,55.6
2018-07-27T08:20:56.879Z,55.6
2018-07-27T08:21:47.421Z,55.6
2018-07-27T08:22:37.583Z,55.6
2018-07-27T08:23:27.642Z,55.6
2018-07-27T08:24:17.401Z,55.5
2018-07-27T08:25:07.464Z,55.5
2018-07-27T08:25:58.094Z,55.5
2018-07-27T08:26:47.854Z,55.5
2018-07-27T08:27:37.084Z,55.5
2018-07-27T08:28:27.428Z,55.5
2018-07-27T08:29:18.067Z,55.5
2018-07-27T08:30:07.904Z,55.5
2018-07-27T08:30:57.624Z,55.4
2018-07-27T08:31:48.279Z,55.4
2018-07-27T08:32:38.055Z,55.4
2018-07-27T08:33:28.061Z,55.4
2018-07-27T08:34:18.404Z,55.4
2018-07-27T08:35:08.264Z,55.4
2018-07-27T08:35:58.025Z,55.4
2018-07-27T08:36:48.089Z,55.4
2018-07-27T08:37:38.944Z,55.4
2018-07-27T08:38:28.811Z,55.4
2018-07-27T08:39:18.610Z,55.4
2018-07-27T08:40:08.652Z,55.4
2018-07-27T08:40:59.024Z,55.3
2018-07-27T08:41:49.051Z,55.3
2018-07-27T08:42:38.644Z,55.3
2018-07-27T08:43:29.196Z,55.3
2018-07-27T08:44:18.664Z,55.3
2018-07-27T08:45:09.321Z,55.3
2018-07-27T08:45:59.126Z,55.3
2018-07-27T08:46:49.484Z,55.3
2018-07-27T08:47:39.218Z,55.2
2018-07-27T08:48:29.556Z,55.2
2018-07-27T08:49:19.061Z,55.2
2018-07-27T08:50:09.719Z,55.2
2018-07-27T08:50:59.764Z,55.2
2018-07-27T08:51:49.832Z,55.2
2018-07-27T08:52:39.059Z,55.1
2018-07-27T08:53:29.684Z,55.1
2018-07-27T08:54:20.009Z,55.1
2018-07-27T08:55:10.119Z,55.1
2018-07-27T08:55:59.078Z,55.1
2018-07-27T08:56:49.336Z,55.1
2018-07-27T08:57:39.236Z,55.1
2018-07-27T08:58:29.731Z,55.1
2018-07-27T08:59:19.821Z,55.1
2018-07-27T09:00:10.143Z,55.1
2018-07-27T09:01:00.530Z,55.1
2018-07-27T09:01:50.053Z,55.1
2018-07-27T09:02:39.917Z,55.1
2018-07-27T09:03:30.138Z,55.1
2018-07-27T09:04:19.715Z,55.1
2018-07-27T09:05:10.041Z,55
2018-07-27T09:06:00.697Z,55
2018-07-27T09:06:50.688Z,55
2018-07-27T09:07:39.935Z,55
2018-07-27T09:08:31.063Z,55
2018-07-27T09:09:20.868Z,55
2018-07-27T09:10:11.379Z,54.9
2018-07-27T09:11:00.950Z,55
2018-07-27T09:11:51.403Z,54.9
2018-07-27T09:12:41.446Z,54.9
2018-07-27T09:13:31.487Z,54.9
2018-07-27T09:14:20.417Z,54.9
2018-07-27T09:15:11.675Z,54.9
2018-07-27T09:16:01.410Z,54.9
2018-07-27T09:16:51.504Z,54.9
2018-07-27T09:17:41.825Z,54.9
2018-07-27T09:18:31.885Z,54.9
2018-07-27T09:19:21.984Z,54.9
2018-07-27T09:20:11.732Z,54.9
2018-07-27T09:21:02.130Z,54.9
2018-07-27T09:21:52.124Z,54.8
2018-07-27T09:22:42.230Z,54.8
2018-07-27T09:23:31.714Z,54.8
2018-07-27T09:24:23.207Z,54.8
2018-07-27T09:25:16.053Z,54.8
2018-07-27T09:26:02.524Z,54.8
2018-07-27T09:26:52.551Z,54.8
2018-07-27T09:27:42.022Z,54.8
2018-07-27T09:28:32.651Z,54.8
2018-07-27T09:29:22.766Z,54.8
2018-07-27T09:30:12.519Z,54.8
2018-07-27T09:31:02.856Z,54.8
2018-07-27T09:31:52.406Z,54.8
2018-07-27T09:32:42.943Z,54.8
2018-07-27T09:33:32.730Z,54.7
2018-07-27T09:34:22.841Z,54.7
2018-07-27T09:35:13.190Z,54.7
2018-07-27T09:36:02.911Z,54.7
2018-07-27T09:36:52.763Z,54.7
2018-07-27T09:37:42.572Z,54.6
2018-07-27T09:38:33.500Z,54.6
2018-07-27T09:39:23.236Z,54.6
2018-07-27T09:40:13.299Z,54.5
2018-07-27T09:41:03.381Z,54.4
2018-07-27T09:41:53.093Z,54.4
2018-07-27T09:42:43.478Z,54.3
2018-07-27T09:43:33.696Z,54.3
2018-07-27T09:44:23.868Z,54.3
2018-07-27T09:45:13.945Z,54.3
2018-07-27T09:46:04.063Z,54.4
2018-07-27T09:46:53.553Z,54.4
2018-07-27T09:47:44.117Z,54.5
2018-07-27T09:48:33.625Z,54.6
2018-07-27T09:49:24.323Z,54.6
2018-07-27T09:50:14.360Z,54.8
2018-07-27T09:51:04.464Z,54.8
2018-07-27T09:51:54.216Z,54.9
2018-07-27T09:52:44.277Z,54.9
2018-07-27T09:53:33.713Z,55
2018-07-27T09:54:24.133Z,55.1
2018-07-27T09:55:14.704Z,55.2
2018-07-27T09:56:04.783Z,55.3
2018-07-27T09:56:54.819Z,55.4
2018-07-27T09:57:44.963Z,55.4
2018-07-27T09:58:35.034Z,55.5
2018-07-27T09:59:24.770Z,55.6
2018-07-27T10:00:14.087Z,55.7
2018-07-27T10:01:04.911Z,55.8
2018-07-27T10:01:55.264Z,55.9
2018-07-27T10:02:44.994Z,55.9
2018-07-27T10:03:35.366Z,56
2018-07-27T10:04:25.401Z,56.1
2018-07-27T10:05:15.466Z,56.1
2018-07-27T10:06:05.270Z,56.3
2018-07-27T10:06:55.322Z,56.3
2018-07-27T10:07:45.414Z,56.4
2018-07-27T10:08:35.177Z,56.6
2018-07-27T10:09:25.251Z,56.6
2018-07-27T10:10:15.900Z,56.8
2018-07-27T10:11:05.626Z,56.8
2018-07-27T10:11:55.703Z,56.9
2018-07-27T10:12:46.092Z,57
2018-07-27T10:13:36.123Z,57.1
2018-07-27T10:14:25.878Z,57.2
2018-07-27T10:15:15.119Z,57.3
2018-07-27T10:16:05.451Z,57.4
2018-07-27T10:16:56.081Z,57.4
2018-07-27T10:17:46.125Z,57.5
2018-07-27T10:18:37.071Z,57.6
2018-07-27T10:19:26.613Z,57.7
2018-07-27T10:21:06.140Z,57.9
2018-07-27T10:21:56.747Z,57.9
2018-07-27T10:22:46.870Z,58.1
2018-07-27T10:23:36.627Z,58.1
2018-07-27T10:24:26.675Z,58.3
2018-07-27T10:25:16.767Z,58.3
2018-07-27T10:26:06.578Z,58.4
2018-07-27T10:26:57.228Z,58.5
2018-07-27T10:27:47.245Z,58.6
2018-07-27T10:28:37.038Z,58.7
2018-07-27T10:29:27.119Z,58.8
2018-07-27T10:30:17.204Z,58.9
2018-07-27T10:31:07.636Z,59
2018-07-27T10:31:57.567Z,59.1
2018-07-27T10:32:47.637Z,59.2
2018-07-27T10:33:36.889Z,59.3
2018-07-27T10:34:27.769Z,59.3
2018-07-27T10:35:17.802Z,59.4
2018-07-27T10:36:07.888Z,59.5
2018-07-27T10:36:57.691Z,59.6
2018-07-27T10:37:48.059Z,59.7
2018-07-27T10:38:38.086Z,59.8
2018-07-27T10:39:28.161Z,59.9
2018-07-27T10:40:17.926Z,59.9
2018-07-27T10:41:08.004Z,60
2018-07-27T10:41:58.323Z,60.1
2018-07-27T10:42:48.354Z,60.3
2018-07-27T10:43:38.542Z,60.3
2018-07-27T10:44:28.253Z,60.4
2018-07-27T10:45:18.586Z,60.5
2018-07-27T10:46:08.120Z,60.6
2018-07-27T10:46:57.600Z,60.7
2018-07-27T10:47:48.198Z,60.8
2018-07-27T10:48:38.595Z,60.8
2018-07-27T10:49:28.916Z,60.9
2018-07-27T10:50:19.461Z,61
2018-07-27T10:51:08.208Z,61.1
2018-07-27T10:51:58.556Z,61.2
2018-07-27T10:52:49.143Z,61.3
2018-07-27T10:53:38.378Z,61.3
2018-07-27T10:54:29.025Z,61.4
2018-07-27T10:55:18.810Z,61.5
2018-07-27T10:56:08.591Z,61.6
2018-07-27T10:56:58.915Z,61.7
2018-07-27T10:57:49.567Z,61.8
2018-07-27T10:58:39.458Z,61.9
2018-07-27T10:59:29.135Z,61.9
2018-07-27T11:00:19.517Z,62
2018-07-27T11:01:09.567Z,62.1
2018-07-27T11:01:59.343Z,62.2
2018-07-27T11:02:49.971Z,62.3
2018-07-27T11:03:40.049Z,62.3
2018-07-27T11:04:30.108Z,62.4
2018-07-27T11:05:19.895Z,62.5
2018-07-27T11:06:10.247Z,62.6
2018-07-27T11:07:00.040Z,62.6
2018-07-27T11:07:50.083Z,62.8
2018-07-27T11:08:40.687Z,62.8
2018-07-27T11:09:30.234Z,62.9
2018-07-27T11:10:20.597Z,62.9
2018-07-27T11:11:10.590Z,63
2018-07-27T11:12:00.674Z,63.1
2018-07-27T11:12:50.473Z,63.2
2018-07-27T11:13:40.780Z,63.3
2018-07-27T11:14:30.582Z,63.4
2018-07-27T11:15:21.003Z,63.4
2018-07-27T11:16:10.999Z,63.5
2018-07-27T11:17:00.814Z,63.6